LGTS - Thessaloniki/Mik, Greece
Distance from station: 15km
: 27/03/2023 00:50
Clear
Clear

: 11 km/h
: 14°C
: 10°C
: 77%
: 1008 hPa
: Clear
Visibility: greater than 10 km
2023/03/26 21:50 LGTS 262150Z 11006KT CAVOK 14/10 Q1008 NOSIG
LGKZ - Kozani (civ/Army, Greece
Distance from station: 113km
: 27/03/2023 00:50


: 7 km/h
: 8°C
Wind Chill: 7°C
: -2°C
: 50%
: 1009 hPa
2023/03/26 21:50 LGKZ 262150Z AUTO 36004KT //// // ////// 08/M02 Q1009 RE//
 
LGKV - Kavala/Chrisoupo, Greece
Distance from station: 132km
: 26/03/2023 22:20
NOT Current
Few Clouds
Few Clouds

: 7 km/h
: 12°C
: 10°C
: 88%
: 1009 hPa
Clouds: Few Clouds
Visibility: 10 km
Cloud details: Few Clouds 914 m
2023/03/26 19:20 LGKV 261920Z 04004KT 9999 FEW030 12/10 Q1009
LGBL - Nea Anchialos, Greece
Distance from station: 156km
: 26/03/2023 23:50
Clear
Clear

: 7 km/h
: 10°C
Wind Chill: 9°C
: 6°C
: 76%
: 1009 hPa
: Clear
Visibility: greater than 10 km
2023/03/26 20:50 LGBL 262050Z 27004KT CAVOK 10/06 Q1009
 
LGSK - Skiathos Island, Greece
Distance from station: 161km
: 26/03/2023 10:50
NOT Current
Clear
Clear

: 11 km/h
: 19°C
: 10°C
: 56%
: 1010 hPa
: Clear
Visibility: greater than 10 km
2023/03/26 07:50 LGSK 260750Z 31006KT CAVOK 19/10 Q1010
LWSK - Skopje/Petrovac, Macedonia
Distance from station: 195km
: 27/03/2023 00:30
Few Clouds
Few Clouds

: 4 km/h
: 9°C
: 3°C
: 66%
: 1008 hPa
Clouds: Few Clouds
Visibility: 10 km
Cloud details: Few Clouds 3048 m
2023/03/26 21:30 LWSK 262130Z 05002KT 9999 FEW100 09/03 Q1008 NOSIG
 
LGLM - Limnos Island Ar, Greece
Distance from station: 196km
: 27/03/2023 00:50
Clear
Clear
   calm
:
: 10°C
: 9°C
: 94%
: 1009 hPa
: Clear
Visibility: greater than 10 km
2023/03/26 21:50 LGLM 262150Z 00000KT CAVOK 10/09 Q1009
LWOH - Ohrid, Macedonia
Distance from station: 202km
: 26/03/2023 22:00
NOT Current
Partly Cloudy
Partly Cloudy

: 6 km/h
: 10°C
: 0°C
: 50%
: 1011 hPa
Clouds: Partly Cloudy
Visibility: 10 km
Cloud details: Partly Cloudy 1006 m
2023/03/26 19:00 LWOH 261900Z 14003KT 9999 SCT033 10/00 Q1011
 
LGSY - Skiros, Greece
Distance from station: 217km
: 26/03/2023 20:50
NOT Current
Clear
Clear

: 6 km/h
: 12°C
: 8°C
: 77%
: 1010 hPa
: Clear
Visibility: greater than 10 km
2023/03/26 17:50 LGSY 261750Z 15003KT CAVOK 12/08 Q1010 RMK FEW180 BLU
LGIO - Ioannina, Greece
Distance from station: 218km
: 27/03/2023 00:50

   varies
: varies 2 km/h
: 8°C
: 5°C
: 82%
: 1011 hPa
2023/03/26 21:50 LGIO 262150Z AUTO VRB01KT //// // ////// 08/05 Q1011 RE//
 
LBPD - Plovdiv, Bulgaria
Distance from station: 222km
: 27/03/2023 00:30
Partly Cloudy
Partly Cloudy

: 6 km/h
: 10°C
: -2°C
: 43%
: 1008 hPa
Clouds: Partly Cloudy
Visibility: 10 km
Cloud details: Few Clouds 6096 m
Partly Cloudy 7010 m
2023/03/26 21:30 LBPD 262130Z AUTO 15003KT 9999 FEW200/// SCT230/// 10/M02 Q1008
LBSF - Sofia (observato, Bulgaria
Distance from station: 229km
: 27/03/2023 00:30
Partly Cloudy
Partly Cloudy

: 7 km/h
: 7°C
Wind Chill: 6°C
: -1°C
: 57%
: 1008 hPa
Clouds: Partly Cloudy
Visibility: 10 km
2023/03/26 21:30 LBSF 262130Z AUTO 09004KT 070V130 9999 NSC 07/M01 Q1008 NOSIG
 
LGAL - Alexandroupolis, Greece
Distance from station: 242km
: 27/03/2023 00:50
Clear
Clear
   calm
:
: 9°C
: 7°C
: 87%
: 1010 hPa
: Clear
Visibility: greater than 10 km
2023/03/26 21:50 LGAL 262150Z 00000KT CAVOK 09/07 Q1010
LGPZ - Preveza/Aktion, Greece
Distance from station: 274km
: 27/03/2023 00:50
Few Clouds
Few Clouds
   calm
:
: 11°C
: 10°C
: 94%
: 1011 hPa
Clouds: Few Clouds
Visibility: 10 km
Cloud details: Few Clouds 762 m
2023/03/26 21:50 LGPZ 262150Z 00000KT 9999 FEW025 11/10 Q1011
 
BKPR - Prishtina, Yugoslavia
Distance from station: 280km
: 27/03/2023 01:00
Clear
Clear

: 15 km/h
: 11°C
: -4°C
: 35%
: 1007 hPa
: Clear
Visibility: greater than 10 km
2023/03/26 22:00 BKPR 262200Z 19008KT CAVOK 11/M04 Q1007 NOSIG
LGEL - Elefsis (hel-Afb, Greece
Distance from station: 284km
: 27/03/2023 00:50
Clear
Clear
   calm
:
: 13°C
: 7°C
: 67%
: 1010 hPa
: Clear
Visibility: greater than 10 km
2023/03/26 21:50 LGEL 262150Z 00000KT CAVOK 13/07 Q1010
 
LATI - Tirana, Albania
Distance from station: 291km
: 27/03/2023 00:50
Few Clouds
Few Clouds

: 11 km/h
: 11°C
: 6°C
: 72%
: 1009 hPa
Clouds: Few Clouds
Visibility: 10 km
Cloud details: Few Clouds 1554 m
2023/03/26 21:50 LATI 262150Z 20006KT 9999 FEW051 11/06 Q1009 NOSIG
LGKR - Ioannis Kapodist, Greece
Distance from station: 292km
: 27/03/2023 00:50
Few Clouds
Few Clouds
   calm
:
: 12°C
: 11°C
: 94%
: 1011 hPa
Clouds: Few Clouds
Visibility: 10 km
Cloud details: Few Clouds 549 m
2023/03/26 21:50 LGKR 262150Z 00000KT 9999 FEW018 12/11 Q1011 NOSIG